PWSweather.com
Personal Weather Stations
Station Observations
KMAMEDFI2
Medfield, MA 02052

Medfield, MA 02052

Lat: 42.1900822, Lon: -71.3296889

Elevation: 138

Station Type: Rainwise WS MK-III

http://www.medfieldweather.com

High Low Average
Temperature 61.2°F16.2°C 30.8°F-0.7°C 48.5°F9.2°C
Dew Point 40.8°F4.9°C 24.4°F-4.2°C 32.5°F0.3°C
Winds 8.1 mph 13.0 kmh Calm Calm 2.0 mph SW3.2 kmh SW
Wind Gusts 17.3 mph27.8 kmh -- 3.0 mph4.8 kmh
Humidity 96% 27% 60%
Pressure 30.41 in1029.8 mb 30.19 in1022.4 mb -
Precipitation 0.01 in0.3 mm - -
Hour Temp Dew Point Humidity Winds Wind Gusts Pressure Precip Precip Rate Daily Precip Total
12:00 AM 39.2°F4.0°C 38.2°F3.4°C 96% Calm Calm -- 30.17 in1021.7 mb - 0.00 in0.0 mm 0.00 in0.0 mm
12:10 AM 38.8°F3.8°C 37.8°F3.2°C 96% Calm Calm -- 30.17 in1021.7 mb - 0.00 in0.0 mm 0.00 in0.0 mm
12:20 AM 38.2°F3.4°C 37.2°F2.9°C 96% Calm Calm 2.3 mph3.7 kmh 30.18 in1022.0 mb - 0.00 in0.0 mm 0.00 in0.0 mm
12:30 AM 38.1°F3.4°C 37.1°F2.8°C 96% Calm Calm 2.3 mph3.7 kmh 30.18 in1022.0 mb - 0.00 in0.0 mm 0.00 in0.0 mm
12:40 AM 37.9°F3.3°C 36.6°F2.6°C 95% Calm Calm -- 30.18 in1022.0 mb - 0.00 in0.0 mm 0.00 in0.0 mm
12:50 AM 37.7°F3.2°C 36.4°F2.4°C 95% Calm Calm -- 30.18 in1022.0 mb - 0.00 in0.0 mm 0.00 in0.0 mm
01:00 AM 37.3°F2.9°C 36.0°F2.2°C 95% Calm Calm -- 30.19 in1022.4 mb - 0.00 in0.0 mm 0.00 in0.0 mm
01:10 AM 37.1°F2.8°C 35.8°F2.1°C 95% Calm Calm -- 30.19 in1022.4 mb - 0.00 in0.0 mm 0.00 in0.0 mm
01:20 AM 36.9°F2.7°C 35.6°F2.0°C 95% Calm Calm -- 30.19 in1022.4 mb - 0.00 in0.0 mm 0.00 in0.0 mm
01:30 AM 36.4°F2.4°C 35.1°F1.7°C 95% Calm Calm -- 30.20 in1022.7 mb - 0.00 in0.0 mm 0.00 in0.0 mm
01:40 AM 35.8°F2.1°C 34.5°F1.4°C 95% Calm Calm -- 30.21 in1023.0 mb - 0.00 in0.0 mm 0.00 in0.0 mm
01:50 AM 35.9°F2.2°C 34.6°F1.4°C 95% Calm Calm -- 30.21 in1023.0 mb - 0.00 in0.0 mm 0.00 in0.0 mm
02:00 AM 35.5°F1.9°C 34.2°F1.2°C 95% Calm Calm -- 30.22 in1023.4 mb - 0.00 in0.0 mm 0.00 in0.0 mm
02:10 AM 35.6°F2.0°C 34.3°F1.3°C 95% Calm Calm -- 30.22 in1023.4 mb - 0.00 in0.0 mm 0.00 in0.0 mm
02:20 AM 35.4°F1.9°C 34.1°F1.2°C 95% Calm Calm -- 30.23 in1023.7 mb - 0.00 in0.0 mm 0.00 in0.0 mm
02:30 AM 34.9°F1.6°C 33.6°F0.9°C 95% Calm Calm -- 30.23 in1023.7 mb - 0.00 in0.0 mm 0.00 in0.0 mm
02:40 AM 35.3°F1.8°C 34.0°F1.1°C 95% Calm Calm -- 30.24 in1024.0 mb - 0.00 in0.0 mm 0.00 in0.0 mm
02:50 AM 35.3°F1.8°C 34.0°F1.1°C 95% Calm Calm -- 30.25 in1024.4 mb - 0.00 in0.0 mm 0.00 in0.0 mm
03:00 AM 34.3°F1.3°C 33.1°F0.6°C 95% Calm Calm -- 30.25 in1024.4 mb - 0.00 in0.0 mm 0.00 in0.0 mm
03:10 AM 34.1°F1.2°C 32.8°F0.4°C 95% Calm Calm 2.3 mph3.7 kmh 30.25 in1024.4 mb - 0.00 in0.0 mm 0.00 in0.0 mm
03:20 AM 34.4°F1.3°C 33.1°F0.6°C 95% Calm Calm -- 30.26 in1024.7 mb - 0.00 in0.0 mm 0.00 in0.0 mm
03:30 AM 34.1°F1.2°C 32.9°F0.5°C 95% Calm Calm -- 30.26 in1024.7 mb - 0.00 in0.0 mm 0.00 in0.0 mm
03:40 AM 33.6°F0.9°C 32.3°F0.2°C 95% Calm Calm -- 30.26 in1024.7 mb - 0.00 in0.0 mm 0.00 in0.0 mm
03:50 AM 33.3°F0.7°C 32.0°F0.0°C 95% Calm Calm -- 30.25 in1024.4 mb - 0.00 in0.0 mm 0.00 in0.0 mm
04:00 AM 32.9°F0.5°C 31.6°F-0.2°C 95% Calm Calm -- 30.26 in1024.7 mb - 0.00 in0.0 mm 0.00 in0.0 mm
04:10 AM 32.5°F0.3°C 31.2°F-0.4°C 95% Calm Calm -- 30.26 in1024.7 mb - 0.00 in0.0 mm 0.00 in0.0 mm
04:20 AM 32.1°F0.1°C 30.8°F-0.7°C 95% Calm Calm -- 30.26 in1024.7 mb - 0.00 in0.0 mm 0.00 in0.0 mm
04:30 AM 32.5°F0.3°C 31.2°F-0.4°C 95% Calm Calm -- 30.26 in1024.7 mb - 0.00 in0.0 mm 0.00 in0.0 mm
04:40 AM 32.3°F0.2°C 31.0°F-0.6°C 95% Calm Calm -- 30.27 in1025.1 mb - 0.00 in0.0 mm 0.00 in0.0 mm
04:50 AM 31.8°F-0.1°C 30.5°F-0.8°C 95% Calm Calm -- 30.27 in1025.1 mb - 0.00 in0.0 mm 0.00 in0.0 mm
05:00 AM 32.1°F0.1°C 30.8°F-0.7°C 95% Calm Calm -- 30.27 in1025.1 mb - 0.00 in0.0 mm 0.00 in0.0 mm
05:10 AM 32.2°F0.1°C 30.9°F-0.6°C 95% Calm Calm -- 30.28 in1025.4 mb - 0.00 in0.0 mm 0.00 in0.0 mm
05:20 AM 31.9°F-0.1°C 30.6°F-0.8°C 95% Calm Calm -- 30.29 in1025.7 mb - 0.00 in0.0 mm 0.00 in0.0 mm
05:30 AM 31.7°F-0.2°C 30.4°F-0.9°C 95% Calm Calm -- 30.29 in1025.7 mb - 0.00 in0.0 mm 0.00 in0.0 mm
05:40 AM 31.6°F-0.2°C 30.3°F-0.9°C 95% Calm Calm -- 30.30 in1026.1 mb - 0.00 in0.0 mm 0.00 in0.0 mm
05:50 AM 31.0°F-0.6°C 29.7°F-1.3°C 95% Calm Calm -- 30.30 in1026.1 mb - 0.00 in0.0 mm 0.00 in0.0 mm
06:00 AM 30.8°F-0.7°C 29.3°F-1.5°C 94% Calm Calm -- 30.31 in1026.4 mb - 0.00 in0.0 mm 0.00 in0.0 mm
06:10 AM 30.9°F-0.6°C 29.4°F-1.4°C 94% Calm Calm -- 30.31 in1026.4 mb - 0.00 in0.0 mm 0.00 in0.0 mm
06:20 AM 31.2°F-0.4°C 29.9°F-1.2°C 95% Calm Calm -- 30.32 in1026.8 mb - 0.00 in0.0 mm 0.00 in0.0 mm
06:30 AM 31.5°F-0.3°C 30.2°F-1.0°C 95% Calm Calm -- 30.33 in1027.1 mb - 0.00 in0.0 mm 0.00 in0.0 mm
06:40 AM 32.8°F0.4°C 31.6°F-0.2°C 95% Calm Calm -- 30.33 in1027.1 mb - 0.00 in0.0 mm 0.00 in0.0 mm
06:50 AM 33.8°F1.0°C 32.6°F0.3°C 95% Calm Calm -- 30.34 in1027.4 mb - 0.00 in0.0 mm 0.00 in0.0 mm
07:00 AM 34.5°F1.4°C 33.2°F0.7°C 95% Calm Calm -- 30.34 in1027.4 mb - 0.00 in0.0 mm 0.00 in0.0 mm
07:10 AM 35.4°F1.9°C 34.1°F1.2°C 95% Calm Calm -- 30.35 in1027.8 mb - 0.00 in0.0 mm 0.00 in0.0 mm
07:20 AM 36.8°F2.7°C 35.5°F1.9°C 95% Calm Calm -- 30.36 in1028.1 mb - 0.00 in0.0 mm 0.00 in0.0 mm
07:30 AM 37.7°F3.2°C 36.4°F2.4°C 95% 3.5 mph SW5.6 kmh SW 3.5 mph5.6 kmh 30.36 in1028.1 mb - 0.00 in0.0 mm 0.00 in0.0 mm
07:40 AM 38.9°F3.8°C 37.9°F3.3°C 96% Calm Calm 2.3 mph3.7 kmh 30.36 in1028.1 mb - 0.00 in0.0 mm 0.00 in0.0 mm
07:50 AM 40.0°F4.4°C 38.9°F3.8°C 96% 2.3 mph WSW3.7 kmh WSW 2.3 mph3.7 kmh 30.37 in1028.4 mb - 0.00 in0.0 mm 0.00 in0.0 mm
08:00 AM 41.4°F5.2°C 38.1°F3.4°C 88% 2.3 mph WSW3.7 kmh WSW 2.3 mph3.7 kmh 30.37 in1028.4 mb - 0.01 in0.3 mm 0.01 in0.3 mm
08:10 AM 42.6°F5.9°C 37.5°F3.1°C 82% 1.2 mph N1.9 kmh N 5.8 mph9.3 kmh 30.37 in1028.4 mb - 0.01 in0.3 mm 0.01 in0.3 mm
08:20 AM 43.9°F6.6°C 36.9°F2.7°C 76% 2.3 mph ENE3.7 kmh ENE 5.8 mph9.3 kmh 30.37 in1028.4 mb - 0.01 in0.3 mm 0.01 in0.3 mm
08:30 AM 45.0°F7.2°C 35.0°F1.7°C 68% 2.3 mph NNW3.7 kmh NNW 5.8 mph9.3 kmh 30.38 in1028.8 mb - 0.01 in0.3 mm 0.01 in0.3 mm
08:40 AM 46.5°F8.1°C 36.1°F2.3°C 67% 2.3 mph NE3.7 kmh NE 3.5 mph5.6 kmh 30.39 in1029.1 mb - 0.01 in0.3 mm 0.01 in0.3 mm
08:50 AM 47.3°F8.5°C 32.8°F0.4°C 57% 2.3 mph WSW3.7 kmh WSW 1.2 mph1.9 kmh 30.39 in1029.1 mb - 0.01 in0.3 mm 0.01 in0.3 mm
09:00 AM 48.8°F9.3°C 33.4°F0.8°C 55% 3.5 mph W5.6 kmh W 2.3 mph3.7 kmh 30.39 in1029.1 mb - 0.00 in0.0 mm 0.01 in0.3 mm
09:10 AM 49.8°F9.9°C 31.4°F-0.3°C 49% 3.5 mph WNW5.6 kmh WNW 6.9 mph11.1 kmh 30.41 in1029.8 mb - 0.00 in0.0 mm 0.01 in0.3 mm
09:20 AM 50.0°F10.0°C 30.1°F-1.1°C 46% 2.3 mph SW3.7 kmh SW 11.5 mph18.5 kmh 30.41 in1029.8 mb - 0.00 in0.0 mm 0.01 in0.3 mm
09:30 AM 49.8°F9.9°C 28.8°F-1.8°C 44% 5.8 mph WNW9.3 kmh WNW 6.9 mph11.1 kmh 30.40 in1029.5 mb - 0.00 in0.0 mm 0.01 in0.3 mm
09:40 AM 50.3°F10.2°C 29.7°F-1.3°C 45% 4.6 mph WSW7.4 kmh WSW 5.8 mph9.3 kmh 30.41 in1029.8 mb - 0.00 in0.0 mm 0.01 in0.3 mm
09:50 AM 51.3°F10.7°C 28.4°F-2.0°C 41% 3.5 mph WSW5.6 kmh WSW 6.9 mph11.1 kmh 30.41 in1029.8 mb - 0.00 in0.0 mm 0.01 in0.3 mm
10:00 AM 51.4°F10.8°C 30.2°F-1.0°C 44% 2.3 mph SW3.7 kmh SW 5.8 mph9.3 kmh 30.41 in1029.8 mb - 0.00 in0.0 mm 0.01 in0.3 mm
10:10 AM 51.6°F10.9°C 28.7°F-1.8°C 41% 2.3 mph WNW3.7 kmh WNW 8.1 mph13.0 kmh 30.40 in1029.5 mb - 0.00 in0.0 mm 0.01 in0.3 mm
10:20 AM 51.9°F11.1°C 28.3°F-2.1°C 40% 4.6 mph ENE7.4 kmh ENE 6.9 mph11.1 kmh 30.40 in1029.5 mb - 0.00 in0.0 mm 0.01 in0.3 mm
10:30 AM 51.9°F11.1°C 27.7°F-2.4°C 39% 6.9 mph SW11.1 kmh SW 9.2 mph14.8 kmh 30.41 in1029.8 mb - 0.00 in0.0 mm 0.01 in0.3 mm
10:40 AM 52.6°F11.4°C 27.7°F-2.4°C 38% 4.6 mph SW7.4 kmh SW 2.3 mph3.7 kmh 30.41 in1029.8 mb - 0.00 in0.0 mm 0.01 in0.3 mm
10:50 AM 53.6°F12.0°C 29.2°F-1.6°C 39% 2.3 mph NW3.7 kmh NW 6.9 mph11.1 kmh 30.41 in1029.8 mb - 0.00 in0.0 mm 0.01 in0.3 mm
11:00 AM 54.4°F12.4°C 29.9°F-1.2°C 39% 1.2 mph ENE1.9 kmh ENE 5.8 mph9.3 kmh 30.41 in1029.8 mb - 0.00 in0.0 mm 0.01 in0.3 mm
11:10 AM 55.1°F12.8°C 29.9°F-1.2°C 38% 4.6 mph N7.4 kmh N 5.8 mph9.3 kmh 30.40 in1029.5 mb - 0.00 in0.0 mm 0.01 in0.3 mm
11:20 AM 54.8°F12.7°C 30.3°F-0.9°C 39% 3.5 mph SW5.6 kmh SW 8.1 mph13.0 kmh 30.40 in1029.5 mb - 0.00 in0.0 mm 0.01 in0.3 mm
11:30 AM 54.7°F12.6°C 28.2°F-2.1°C 36% 2.3 mph NNW3.7 kmh NNW 2.3 mph3.7 kmh 30.40 in1029.5 mb - 0.00 in0.0 mm 0.01 in0.3 mm
11:40 AM 55.6°F13.1°C 26.9°F-2.8°C 33% 4.6 mph ENE7.4 kmh ENE 6.9 mph11.1 kmh 30.41 in1029.8 mb - 0.00 in0.0 mm 0.01 in0.3 mm
11:50 AM 55.7°F13.2°C 27.7°F-2.4°C 34% 3.5 mph WSW5.6 kmh WSW 5.8 mph9.3 kmh 30.40 in1029.5 mb - 0.00 in0.0 mm 0.01 in0.3 mm
12:00 PM 55.1°F12.8°C 25.0°F-3.9°C 31% 8.1 mph SW13.0 kmh SW 9.2 mph14.8 kmh 30.40 in1029.5 mb - 0.00 in0.0 mm 0.01 in0.3 mm
12:10 PM 55.3°F12.9°C 24.4°F-4.2°C 30% 3.5 mph NE5.6 kmh NE 3.5 mph5.6 kmh 30.39 in1029.1 mb - 0.00 in0.0 mm 0.01 in0.3 mm
12:20 PM 55.6°F13.1°C 27.7°F-2.4°C 34% 3.5 mph W5.6 kmh W 6.9 mph11.1 kmh 30.39 in1029.1 mb - 0.00 in0.0 mm 0.01 in0.3 mm
12:30 PM 56.0°F13.3°C 27.3°F-2.6°C 33% 5.8 mph WSW9.3 kmh WSW 9.2 mph14.8 kmh 30.39 in1029.1 mb - 0.00 in0.0 mm 0.01 in0.3 mm
12:40 PM 56.5°F13.6°C 27.7°F-2.4°C 33% 6.9 mph NW11.1 kmh NW 13.8 mph22.2 kmh 30.38 in1028.8 mb - 0.00 in0.0 mm 0.01 in0.3 mm
12:50 PM 57.1°F13.9°C 29.0°F-1.7°C 34% 6.9 mph WSW11.1 kmh WSW 13.8 mph22.2 kmh 30.37 in1028.4 mb - 0.00 in0.0 mm 0.01 in0.3 mm
01:00 PM 57.5°F14.2°C 26.3°F-3.2°C 30% 6.9 mph NW11.1 kmh NW 8.1 mph13.0 kmh 30.37 in1028.4 mb - 0.00 in0.0 mm 0.01 in0.3 mm
01:10 PM 57.7°F14.3°C 29.5°F-1.4°C 34% 3.5 mph NW5.6 kmh NW 9.2 mph14.8 kmh 30.37 in1028.4 mb - 0.00 in0.0 mm 0.01 in0.3 mm
01:20 PM 58.2°F14.6°C 29.2°F-1.6°C 33% 2.3 mph SW3.7 kmh SW 2.3 mph3.7 kmh 30.37 in1028.4 mb - 0.00 in0.0 mm 0.01 in0.3 mm
01:30 PM 59.1°F15.1°C 26.9°F-2.8°C 29% 4.6 mph WSW7.4 kmh WSW 6.9 mph11.1 kmh 30.37 in1028.4 mb - 0.00 in0.0 mm 0.01 in0.3 mm
01:40 PM 58.9°F14.9°C 29.8°F-1.2°C 33% 3.5 mph WNW5.6 kmh WNW 2.3 mph3.7 kmh 30.37 in1028.4 mb - 0.00 in0.0 mm 0.01 in0.3 mm
01:50 PM 59.1°F15.1°C 26.9°F-2.8°C 29% 6.9 mph WNW11.1 kmh WNW 8.1 mph13.0 kmh 30.38 in1028.8 mb - 0.00 in0.0 mm 0.01 in0.3 mm
02:00 PM 59.3°F15.2°C 30.9°F-0.6°C 34% 5.8 mph WSW9.3 kmh WSW 2.3 mph3.7 kmh 30.38 in1028.8 mb - 0.00 in0.0 mm 0.01 in0.3 mm
02:10 PM 59.4°F15.2°C 30.3°F-0.9°C 33% 4.6 mph S7.4 kmh S 9.2 mph14.8 kmh 30.38 in1028.8 mb - 0.00 in0.0 mm 0.01 in0.3 mm
02:20 PM 59.7°F15.4°C 27.4°F-2.6°C 29% 3.5 mph S5.6 kmh S 5.8 mph9.3 kmh 30.38 in1028.8 mb - 0.00 in0.0 mm 0.01 in0.3 mm
02:30 PM 59.5°F15.3°C 30.3°F-0.9°C 33% 4.6 mph ENE7.4 kmh ENE 5.8 mph9.3 kmh 30.38 in1028.8 mb - 0.00 in0.0 mm 0.01 in0.3 mm
02:40 PM 59.0°F15.0°C 25.0°F-3.9°C 27% 8.1 mph W13.0 kmh W 9.2 mph14.8 kmh 30.37 in1028.4 mb - 0.00 in0.0 mm 0.01 in0.3 mm
02:50 PM 59.4°F15.2°C 27.9°F-2.3°C 30% 6.9 mph WSW11.1 kmh WSW 17.3 mph27.8 kmh 30.37 in1028.4 mb - 0.00 in0.0 mm 0.01 in0.3 mm
03:00 PM 59.5°F15.3°C 28.0°F-2.2°C 30% 3.5 mph SSW5.6 kmh SSW 2.3 mph3.7 kmh 30.37 in1028.4 mb - 0.00 in0.0 mm 0.01 in0.3 mm
03:10 PM 60.4°F15.8°C 28.0°F-2.2°C 29% 5.8 mph W9.3 kmh W 8.1 mph13.0 kmh 30.37 in1028.4 mb - 0.00 in0.0 mm 0.01 in0.3 mm
03:20 PM 60.5°F15.8°C 27.2°F-2.7°C 28% 3.5 mph WSW5.6 kmh WSW 2.3 mph3.7 kmh 30.36 in1028.1 mb - 0.00 in0.0 mm 0.01 in0.3 mm
03:30 PM 60.4°F15.8°C 28.0°F-2.2°C 29% 3.5 mph NW5.6 kmh NW 5.8 mph9.3 kmh 30.36 in1028.1 mb - 0.00 in0.0 mm 0.01 in0.3 mm
03:40 PM 60.8°F16.0°C 29.2°F-1.6°C 30% 2.3 mph W3.7 kmh W 3.5 mph5.6 kmh 30.36 in1028.1 mb - 0.00 in0.0 mm 0.01 in0.3 mm
03:50 PM 61.2°F16.2°C 29.5°F-1.4°C 30% 4.6 mph WNW7.4 kmh WNW 6.9 mph11.1 kmh 30.35 in1027.8 mb - 0.00 in0.0 mm 0.01 in0.3 mm
04:00 PM 60.7°F15.9°C 32.2°F0.1°C 34% 3.5 mph WSW5.6 kmh WSW 8.1 mph13.0 kmh 30.35 in1027.8 mb - 0.00 in0.0 mm 0.01 in0.3 mm
04:10 PM 59.7°F15.4°C 30.5°F-0.8°C 33% 3.5 mph WSW5.6 kmh WSW 8.1 mph13.0 kmh 30.35 in1027.8 mb - 0.00 in0.0 mm 0.01 in0.3 mm
04:20 PM 59.1°F15.1°C 30.0°F-1.1°C 33% 4.6 mph W7.4 kmh W 8.1 mph13.0 kmh 30.34 in1027.4 mb - 0.00 in0.0 mm 0.01 in0.3 mm
04:30 PM 59.5°F15.3°C 29.5°F-1.4°C 32% 3.5 mph SW5.6 kmh SW 2.3 mph3.7 kmh 30.34 in1027.4 mb - 0.00 in0.0 mm 0.01 in0.3 mm
04:40 PM 59.3°F15.2°C 30.1°F-1.1°C 33% 4.6 mph NW7.4 kmh NW 3.5 mph5.6 kmh 30.34 in1027.4 mb - 0.00 in0.0 mm 0.01 in0.3 mm
04:50 PM 59.0°F15.0°C 29.1°F-1.6°C 32% 4.6 mph S7.4 kmh S 9.2 mph14.8 kmh 30.34 in1027.4 mb - 0.00 in0.0 mm 0.01 in0.3 mm
05:00 PM 59.0°F15.0°C 28.3°F-2.1°C 31% 2.3 mph WSW3.7 kmh WSW 2.3 mph3.7 kmh 30.33 in1027.1 mb - 0.00 in0.0 mm 0.01 in0.3 mm
05:10 PM 58.9°F14.9°C 28.3°F-2.1°C 31% 3.5 mph W5.6 kmh W 2.3 mph3.7 kmh 30.34 in1027.4 mb - 0.00 in0.0 mm 0.01 in0.3 mm
05:20 PM 59.0°F15.0°C 30.6°F-0.8°C 34% Calm Calm 2.3 mph3.7 kmh 30.34 in1027.4 mb - 0.00 in0.0 mm 0.01 in0.3 mm
05:30 PM 59.0°F15.0°C 28.3°F-2.1°C 31% 4.6 mph S7.4 kmh S 2.3 mph3.7 kmh 30.35 in1027.8 mb - 0.00 in0.0 mm 0.01 in0.3 mm
05:40 PM 58.9°F14.9°C 29.0°F-1.7°C 32% 3.5 mph W5.6 kmh W 2.3 mph3.7 kmh 30.35 in1027.8 mb - 0.00 in0.0 mm 0.01 in0.3 mm
05:50 PM 58.8°F14.9°C 28.2°F-2.1°C 31% 3.5 mph NW5.6 kmh NW 3.5 mph5.6 kmh 30.34 in1027.4 mb - 0.00 in0.0 mm 0.01 in0.3 mm
06:00 PM 58.6°F14.8°C 29.5°F-1.4°C 33% 3.5 mph W5.6 kmh W 5.8 mph9.3 kmh 30.34 in1027.4 mb - 0.00 in0.0 mm 0.01 in0.3 mm
06:10 PM 58.6°F14.8°C 29.5°F-1.4°C 33% 2.3 mph W3.7 kmh W 2.3 mph3.7 kmh 30.34 in1027.4 mb - 0.00 in0.0 mm 0.01 in0.3 mm
06:20 PM 58.5°F14.7°C 28.7°F-1.8°C 32% 2.3 mph SSE3.7 kmh SSE 2.3 mph3.7 kmh 30.33 in1027.1 mb - 0.00 in0.0 mm 0.01 in0.3 mm
06:30 PM 58.7°F14.8°C 28.9°F-1.7°C 32% 1.2 mph SSW1.9 kmh SSW 2.3 mph3.7 kmh 30.33 in1027.1 mb - 0.00 in0.0 mm 0.01 in0.3 mm
06:40 PM 58.5°F14.7°C 29.4°F-1.4°C 33% 1.2 mph W1.9 kmh W 2.3 mph3.7 kmh 30.33 in1027.1 mb - 0.00 in0.0 mm 0.01 in0.3 mm
06:50 PM 57.9°F14.4°C 30.4°F-0.9°C 35% Calm Calm -- 30.33 in1027.1 mb - 0.00 in0.0 mm 0.01 in0.3 mm
07:00 PM 57.3°F14.1°C 31.2°F-0.4°C 37% Calm Calm -- 30.33 in1027.1 mb - 0.00 in0.0 mm 0.01 in0.3 mm
07:10 PM 56.8°F13.8°C 38.3°F3.5°C 50% 2.3 mph E3.7 kmh E 2.3 mph3.7 kmh 30.33 in1027.1 mb - 0.00 in0.0 mm 0.01 in0.3 mm
07:20 PM 55.6°F13.1°C 39.2°F4.0°C 54% 2.3 mph E3.7 kmh E 2.3 mph3.7 kmh 30.33 in1027.1 mb - 0.00 in0.0 mm 0.01 in0.3 mm
07:30 PM 54.8°F12.7°C 38.9°F3.8°C 55% 1.2 mph SE1.9 kmh SE 1.2 mph1.9 kmh 30.33 in1027.1 mb - 0.00 in0.0 mm 0.01 in0.3 mm
07:40 PM 54.2°F12.3°C 39.3°F4.1°C 57% Calm Calm -- 30.33 in1027.1 mb - 0.00 in0.0 mm 0.01 in0.3 mm
07:50 PM 53.8°F12.1°C 40.6°F4.8°C 61% 1.2 mph SE1.9 kmh SE 2.3 mph3.7 kmh 30.33 in1027.1 mb - 0.00 in0.0 mm 0.01 in0.3 mm
08:00 PM 53.5°F11.9°C 40.4°F4.7°C 61% 1.2 mph SE1.9 kmh SE 1.2 mph1.9 kmh 30.32 in1026.8 mb - 0.00 in0.0 mm 0.01 in0.3 mm
08:10 PM 53.0°F11.7°C 40.8°F4.9°C 63% 1.2 mph SE1.9 kmh SE 2.3 mph3.7 kmh 30.32 in1026.8 mb - 0.00 in0.0 mm 0.01 in0.3 mm
08:20 PM 52.9°F11.6°C 39.8°F4.3°C 61% 1.2 mph SE1.9 kmh SE 2.3 mph3.7 kmh 30.31 in1026.4 mb - 0.00 in0.0 mm 0.01 in0.3 mm
08:30 PM 52.5°F11.4°C 39.9°F4.4°C 62% Calm Calm -- 30.31 in1026.4 mb - 0.00 in0.0 mm 0.01 in0.3 mm
08:40 PM 52.2°F11.2°C 40.4°F4.7°C 64% Calm Calm -- 30.32 in1026.8 mb - 0.00 in0.0 mm 0.01 in0.3 mm
08:50 PM 52.0°F11.1°C 40.6°F4.8°C 65% 1.2 mph SE1.9 kmh SE 2.3 mph3.7 kmh 30.32 in1026.8 mb - 0.00 in0.0 mm 0.01 in0.3 mm
09:00 PM 52.0°F11.1°C 40.2°F4.6°C 64% Calm Calm -- 30.31 in1026.4 mb - 0.00 in0.0 mm 0.01 in0.3 mm
09:10 PM 51.8°F11.0°C 40.4°F4.7°C 65% Calm Calm 2.3 mph3.7 kmh 30.31 in1026.4 mb - 0.00 in0.0 mm 0.01 in0.3 mm
09:20 PM 51.7°F10.9°C 39.1°F3.9°C 62% 1.2 mph SE1.9 kmh SE 3.5 mph5.6 kmh 30.31 in1026.4 mb - 0.00 in0.0 mm 0.01 in0.3 mm
09:30 PM 52.2°F11.2°C 37.0°F2.8°C 56% 2.3 mph S3.7 kmh S 5.8 mph9.3 kmh 30.31 in1026.4 mb - 0.00 in0.0 mm 0.01 in0.3 mm
09:40 PM 52.7°F11.5°C 35.5°F1.9°C 52% 3.5 mph SE5.6 kmh SE 2.3 mph3.7 kmh 30.33 in1027.1 mb - 0.00 in0.0 mm 0.01 in0.3 mm
09:50 PM 52.6°F11.4°C 35.4°F1.9°C 52% 2.3 mph S3.7 kmh S 2.3 mph3.7 kmh 30.33 in1027.1 mb - 0.00 in0.0 mm 0.01 in0.3 mm
10:00 PM 52.3°F11.3°C 35.7°F2.1°C 53% 2.3 mph S3.7 kmh S 2.3 mph3.7 kmh 30.32 in1026.8 mb - 0.00 in0.0 mm 0.01 in0.3 mm
10:10 PM 52.0°F11.1°C 35.9°F2.2°C 54% 2.3 mph ESE3.7 kmh ESE 5.8 mph9.3 kmh 30.31 in1026.4 mb - 0.00 in0.0 mm 0.01 in0.3 mm
10:20 PM 51.7°F10.9°C 35.1°F1.7°C 53% 3.5 mph SE5.6 kmh SE 3.5 mph5.6 kmh 30.31 in1026.4 mb - 0.00 in0.0 mm 0.01 in0.3 mm
10:30 PM 51.5°F10.8°C 35.4°F1.9°C 54% 2.3 mph SW3.7 kmh SW 3.5 mph5.6 kmh 30.32 in1026.8 mb - 0.00 in0.0 mm 0.01 in0.3 mm
10:40 PM 51.3°F10.7°C 35.7°F2.1°C 55% Calm Calm -- 30.31 in1026.4 mb - 0.00 in0.0 mm 0.01 in0.3 mm
10:50 PM 50.9°F10.5°C 35.8°F2.1°C 56% 1.2 mph WSW1.9 kmh WSW -- 30.30 in1026.1 mb - 0.00 in0.0 mm 0.01 in0.3 mm
11:00 PM 50.7°F10.4°C 36.0°F2.2°C 57% Calm Calm -- 30.30 in1026.1 mb - 0.00 in0.0 mm 0.01 in0.3 mm
11:10 PM 50.6°F10.3°C 36.4°F2.4°C 58% 1.2 mph NNW1.9 kmh NNW 2.3 mph3.7 kmh 30.30 in1026.1 mb - 0.00 in0.0 mm 0.01 in0.3 mm
11:20 PM 50.4°F10.2°C 35.7°F2.1°C 57% 1.2 mph S1.9 kmh S 2.3 mph3.7 kmh 30.29 in1025.7 mb - 0.00 in0.0 mm 0.01 in0.3 mm
11:30 PM 50.2°F10.1°C 36.9°F2.7°C 60% 1.2 mph SSW1.9 kmh SSW 2.3 mph3.7 kmh 30.30 in1026.1 mb - 0.00 in0.0 mm 0.01 in0.3 mm
11:40 PM 50.1°F10.1°C 37.2°F2.9°C 61% 2.3 mph SW3.7 kmh SW 2.3 mph3.7 kmh 30.31 in1026.4 mb - 0.00 in0.0 mm 0.01 in0.3 mm
11:50 PM 49.9°F9.9°C 36.5°F2.5°C 60% Calm Calm 2.3 mph3.7 kmh 30.31 in1026.4 mb - 0.00 in0.0 mm 0.01 in0.3 mm